Time;durP1;ratioP1;P1;durP2;ratioP2;P2;SDS_P1;SDS_P2;PMS_P1;PMS_P2;Temp;Humidity;BMP_temperature;BMP_pressure;BME280_temperature;BME280_humidity;BME280_pressure;Samples;Min_cycle;Max_cycle;Signal;HPM_P1;HPM_P2
2023/05/30 00:01:15;;;;;;;;;5.00;4.67;;;;;19.30;39.99;101573.66;4987915;28;45471;-71
2023/05/30 00:03:48;;;;;;;;;3.33;3.00;;;;;19.17;39.95;101551.03;4994729;28;46213;-72
2023/05/30 00:06:15;;;;;;;;;2.00;2.00;;;;;19.33;40.17;101577.28;5012359;28;45659;-72
2023/05/30 00:08:42;;;;;;;;;4.33;2.67;;;;;19.36;39.90;101578.22;5001430;28;45377;-73
2023/05/30 00:11:08;;;;;;;;;4.33;4.00;;;;;19.35;39.96;101574.59;5024523;28;45006;-72
2023/05/30 00:13:34;;;;;;;;;4.00;4.00;;;;;19.25;39.67;101567.34;5014012;28;45314;-71
2023/05/30 00:16:01;;;;;;;;;5.00;3.67;;;;;19.32;39.63;101589.03;5014311;28;45234;-71
2023/05/30 00:18:34;;;;;;;;;1.33;1.33;;;;;19.15;39.60;101563.69;4997164;28;45357;-71
2023/05/30 00:21:02;;;;;;;;;2.33;2.33;;;;;19.24;39.97;101584.50;5006251;28;45434;-72
2023/05/30 00:23:28;;;;;;;;;3.00;2.00;;;;;19.31;39.65;101603.47;5000161;28;46043;-72
2023/05/30 00:25:55;;;;;;;;;4.00;3.00;;;;;19.31;39.93;101606.19;5004907;28;45433;-70
2023/05/30 00:28:22;;;;;;;;;5.33;4.00;;;;;19.09;39.86;101567.28;5027172;28;45344;-71
2023/05/30 00:30:47;;;;;;;;;4.33;3.67;;;;;19.29;39.70;101609.81;4993400;28;45376;-72
2023/05/30 00:33:13;;;;;;;;;2.00;1.00;;;;;19.08;39.93;101573.59;4994562;28;46079;-70
2023/05/30 00:35:38;;;;;;;;;6.33;3.33;;;;;19.11;40.19;101606.09;5008196;28;44959;-70
2023/05/30 00:38:04;;;;;;;;;4.00;3.67;;;;;18.95;40.27;101586.16;4999848;28;45834;-73
2023/05/30 00:40:30;;;;;;;;;5.00;3.00;;;;;19.09;40.68;101612.41;4996320;28;45458;-72
2023/05/30 00:42:55;;;;;;;;;3.00;2.00;;;;;18.96;40.55;101579.84;5013772;28;47356;-72
2023/05/30 00:45:21;;;;;;;;;4.33;4.33;;;;;18.90;40.77;101593.34;5013612;28;45435;-71
2023/05/30 00:47:47;;;;;;;;;4.00;3.00;;;;;19.03;40.82;101609.69;4996319;28;45296;-73
2023/05/30 00:50:15;;;;;;;;;4.00;2.00;;;;;18.99;40.88;101615.97;5014918;28;45618;-73
2023/05/30 00:52:40;;;;;;;;;4.33;2.67;;;;;18.87;40.67;101597.84;5014559;28;46245;-71
2023/05/30 00:55:06;;;;;;;;;3.00;3.00;;;;;18.93;41.26;101612.31;5015037;28;45345;-72
2023/05/30 00:57:33;;;;;;;;;3.67;3.67;;;;;18.91;41.50;101618.66;4998725;28;45398;-74
2023/05/30 01:00:04;;;;;;;;;3.00;2.33;;;;;18.83;41.42;101593.28;5016827;28;45340;-72
2023/05/30 01:02:32;;;;;;;;;4.67;3.00;;;;;18.85;41.66;101608.66;5017936;28;46949;-74
2023/05/30 01:04:58;;;;;;;;;3.33;3.33;;;;;18.71;41.76;101591.41;4999219;28;45383;-71
2023/05/30 01:07:23;;;;;;;;;4.00;4.00;;;;;18.74;41.97;101607.66;5001044;28;45328;-73
2023/05/30 01:09:49;;;;;;;;;7.33;5.33;;;;;18.82;41.92;101614.03;5014515;28;45620;-73
2023/05/30 01:12:41;;;;;;;;;4.00;4.00;;;;;18.79;41.62;101614.94;5012978;28;46251;-73
2023/05/30 01:15:17;;;;;;;;;5.00;3.00;;;;;18.70;42.03;101601.31;5012991;28;45628;-75
2023/05/30 01:17:49;;;;;;;;;5.67;4.00;;;;;18.73;42.18;101624.81;5011803;28;45413;-74
2023/05/30 01:20:18;;;;;;;;;2.00;2.00;;;;;18.66;42.21;101612.13;5014627;28;45276;-72
2023/05/30 01:23:04;;;;;;;;;3.00;3.00;;;;;18.73;42.30;101622.09;5018437;28;45369;-71
2023/05/30 01:25:39;;;;;;;;;6.67;4.33;;;;;18.69;42.27;101625.66;5012907;28;45297;-72
2023/05/30 01:28:15;;;;;;;;;6.67;4.67;;;;;18.59;42.42;101605.75;4992568;28;45483;-72
2023/05/30 01:30:45;;;;;;;;;7.00;3.67;;;;;18.65;42.46;101621.16;5002116;28;45535;-72
2023/05/30 01:33:13;;;;;;;;;3.33;3.33;;;;;18.64;42.50;101622.94;5012761;28;46436;-71
2023/05/30 01:35:41;;;;;;;;;5.00;3.00;;;;;18.65;42.98;101642.81;4999081;28;45375;-71
2023/05/30 01:38:07;;;;;;;;;2.00;2.00;;;;;18.59;42.89;101633.75;5023380;28;45337;-71
2023/05/30 01:40:33;;;;;;;;;2.00;2.00;;;;;18.43;42.77;101610.16;5029182;28;45406;-73
2023/05/30 01:43:07;;;;;;;;;4.67;3.00;;;;;18.55;42.59;101633.72;5022125;28;45481;-72
2023/05/30 01:45:58;;;;;;;;;5.00;4.33;;;;;18.54;42.83;101626.47;5001288;28;45495;-72
2023/05/30 01:48:33;;;;;;;;;6.00;3.33;;;;;18.46;42.91;101630.91;4980338;28;45510;-71
2023/05/30 01:51:04;;;;;;;;;5.67;3.00;;;;;18.37;43.21;101615.53;4989525;28;45490;-73
2023/05/30 01:53:38;;;;;;;;;4.33;3.00;;;;;17.81;43.03;101517.66;5003482;28;46798;-73
2023/05/30 01:56:07;;;;;;;;;3.67;2.00;;;;;18.13;43.08;101581.97;5016875;28;45553;-71
2023/05/30 01:58:36;;;;;;;;;3.00;3.00;;;;;18.29;43.34;101618.16;5008127;28;45691;-71
2023/05/30 02:01:04;;;;;;;;;6.33;4.00;;;;;18.35;43.16;101625.44;5005341;28;45513;-72
2023/05/30 02:03:30;;;;;;;;;5.00;2.33;;;;;18.14;43.34;101596.41;5017176;28;45556;-71
2023/05/30 02:06:00;;;;;;;;;7.00;3.33;;;;;18.30;43.28;101621.78;5001752;28;45577;-70
2023/05/30 02:08:26;;;;;;;;;3.67;3.00;;;;;18.02;43.81;101575.56;4999548;28;45563;-72
2023/05/30 02:10:53;;;;;;;;;4.33;3.33;;;;;18.23;43.95;101628.91;5012974;28;45266;-70
2023/05/30 02:13:18;;;;;;;;;2.67;2.00;;;;;17.98;43.85;101581.81;5015426;28;45426;-72
2023/05/30 02:15:44;;;;;;;;;6.00;4.00;;;;;18.15;43.65;101609.94;5022834;28;45383;-71
2023/05/30 02:18:10;;;;;;;;;3.00;3.00;;;;;18.19;43.95;101627.09;5039902;28;45339;-69
2023/05/30 02:20:36;;;;;;;;;3.33;3.00;;;;;18.10;44.04;101611.69;5039582;28;45618;-70
2023/05/30 02:23:02;;;;;;;;;2.33;2.33;;;;;18.17;43.84;101623.47;5038729;28;46181;-71
2023/05/30 02:25:28;;;;;;;;;7.00;5.00;;;;;18.08;43.83;101624.28;5026711;28;45607;-71
2023/05/30 02:27:53;;;;;;;;;4.00;4.00;;;;;18.11;44.17;101629.72;5014113;28;45497;-69
2023/05/30 02:30:19;;;;;;;;;4.67;2.33;;;;;18.13;43.95;101635.13;5016408;28;45602;-71
2023/05/30 02:32:44;;;;;;;;;5.67;2.67;;;;;18.01;44.04;101612.50;5017327;28;45791;-70
2023/05/30 02:35:11;;;;;;;;;4.67;4.00;;;;;17.96;44.06;101619.66;5017147;28;45399;-70
2023/05/30 02:37:36;;;;;;;;;3.00;2.67;;;;;17.98;44.16;101619.66;5017286;28;45391;-70
2023/05/30 02:40:02;;;;;;;;;3.67;2.00;;;;;17.94;44.72;101624.16;5016698;28;45384;-70
2023/05/30 02:42:27;;;;;;;;;4.00;3.33;;;;;17.74;44.94;101601.41;5017557;28;45991;-71
2023/05/30 02:44:53;;;;;;;;;5.00;3.33;;;;;17.88;44.61;101624.06;4998079;28;45323;-70
2023/05/30 02:47:18;;;;;;;;;5.00;4.33;;;;;17.38;44.44;101541.56;5016767;28;45509;-71
2023/05/30 02:49:44;;;;;;;;;5.33;3.33;;;;;17.90;44.41;101627.72;5015763;28;45386;-72
2023/05/30 02:52:09;;;;;;;;;5.67;3.67;;;;;17.88;44.32;101631.28;5016802;28;45700;-72
2023/05/30 02:54:35;;;;;;;;;4.33;3.00;;;;;17.76;44.84;101610.41;5017017;28;45462;-71
2023/05/30 02:57:01;;;;;;;;;5.00;3.00;;;;;17.89;44.32;101630.41;5016601;28;45406;-72
2023/05/30 02:59:27;;;;;;;;;5.33;3.67;;;;;17.76;43.97;101618.53;5017287;28;45348;-72
2023/05/30 03:01:52;;;;;;;;;4.33;2.33;;;;;17.74;44.15;101621.22;5014130;28;45949;-73
2023/05/30 03:04:17;;;;;;;;;6.00;3.00;;;;;17.82;44.33;101640.22;4999371;28;45399;-72
2023/05/30 03:06:43;;;;;;;;;15.50;10.25;;;;;17.80;44.75;101636.56;5001291;28;45665;-71
2023/05/30 03:09:11;;;;;;;;;6.67;6.33;;;;;17.76;44.79;101641.03;5000533;28;45352;-72
2023/05/30 03:11:36;;;;;;;;;3.33;3.33;;;;;17.74;44.21;101640.13;5001857;28;46528;-73
2023/05/30 03:14:02;;;;;;;;;4.33;3.00;;;;;17.62;44.65;101623.75;4980507;28;45369;-70
2023/05/30 03:16:28;;;;;;;;;8.33;3.67;;;;;17.64;44.50;101633.72;5007391;28;45289;-70
2023/05/30 03:18:54;;;;;;;;;4.00;4.00;;;;;17.59;44.31;101621.03;5018755;28;45562;-72
2023/05/30 03:21:20;;;;;;;;;3.33;2.33;;;;;17.65;44.55;101640.94;5015334;28;46066;-70
2023/05/30 03:23:45;;;;;;;;;3.33;2.00;;;;;17.59;44.79;101640.88;5008976;28;45416;-71
2023/05/30 03:26:10;;;;;;;;;3.33;3.00;;;;;17.56;44.74;101648.94;5018769;28;45423;-72
2023/05/30 03:28:36;;;;;;;;;2.00;2.00;;;;;17.09;44.29;101560.09;5017504;28;45329;-72
2023/05/30 03:31:04;;;;;;;;;4.00;3.00;;;;;17.47;44.75;101636.22;5015451;28;46421;-72
2023/05/30 03:33:30;;;;;;;;;9.00;9.00;;;;;17.24;44.73;101600.81;5015012;28;45332;-71
2023/05/30 03:35:55;;;;;;;;;3.67;2.67;;;;;17.31;44.75;101640.50;5008436;28;45526;-71
2023/05/30 03:38:21;;;;;;;;;6.00;3.67;;;;;17.24;45.13;101643.09;4996712;28;45423;-71
2023/05/30 03:40:46;;;;;;;;;9.67;6.67;;;;;17.21;44.80;101644.00;4995235;28;46092;-71
2023/05/30 03:43:12;;;;;;;;;4.00;4.00;;;;;17.02;45.17;101623.91;4995001;28;45329;-70
2023/05/30 03:45:40;;;;;;;;;6.00;3.00;;;;;17.11;44.96;101648.34;4977238;28;45318;-71
2023/05/30 03:48:05;;;;;;;;;4.00;3.00;;;;;17.10;45.60;101660.03;4987977;28;45610;-71
2023/05/30 03:50:30;;;;;;;;;3.00;2.33;;;;;17.13;45.45;101668.19;5001170;28;45647;-71
2023/05/30 03:52:56;;;;;;;;;5.67;4.00;;;;;17.09;44.96;101665.41;5002554;28;45382;-72
2023/05/30 03:55:21;;;;;;;;;3.00;3.00;;;;;16.98;45.36;101650.84;5015275;28;45395;-71
2023/05/30 03:57:46;;;;;;;;;2.00;2.00;;;;;17.01;44.93;101659.91;4996037;28;45540;-70
2023/05/30 04:00:13;;;;;;;;;5.00;3.00;;;;;16.97;45.42;101662.53;4996356;28;46245;-72
2023/05/30 04:02:40;;;;;;;;;41.50;37.25;;;;;17.02;45.40;101667.09;4983587;28;45432;-71
2023/05/30 04:05:06;;;;;;;;;9.50;7.00;;;;;17.05;45.02;101671.66;5004195;28;45353;-73
2023/05/30 04:07:35;;;;;;;;;6.00;4.33;;;;;17.04;45.28;101659.03;5016579;28;45644;-69
2023/05/30 04:10:03;;;;;;;;;5.67;2.00;;;;;17.00;44.83;101649.09;5017705;28;45376;-71
2023/05/30 04:12:29;;;;;;;;;9.33;5.00;;;;;17.05;45.02;101659.06;5019688;28;45658;-71
2023/05/30 04:14:54;;;;;;;;;5.00;4.33;;;;;17.06;44.64;101668.06;5017304;28;45331;-71
2023/05/30 04:17:20;;;;;;;;;6.67;4.00;;;;;16.92;45.31;101657.97;5000549;28;45557;-70
2023/05/30 04:19:46;;;;;;;;;5.67;4.67;;;;;16.79;45.27;101633.44;4997996;28;45476;-69
2023/05/30 04:22:11;;;;;;;;;2.33;2.33;;;;;16.93;44.74;101667.91;5016233;28;45507;-71
2023/05/30 04:24:36;;;;;;;;;2.67;2.67;;;;;16.65;45.38;101627.84;5000729;28;45576;-70
2023/05/30 04:27:02;;;;;;;;;5.00;3.00;;;;;16.91;45.42;101684.94;5015978;28;45506;-70
2023/05/30 04:29:27;;;;;;;;;8.00;3.33;;;;;16.84;45.19;101665.00;5019133;28;46034;-70
2023/05/30 04:31:53;;;;;;;;;4.00;3.00;;;;;16.92;44.63;101681.38;4999120;28;45360;-72
2023/05/30 04:34:18;;;;;;;;;7.33;5.00;;;;;16.94;45.02;101687.69;5016160;28;45763;-71
2023/05/30 04:36:44;;;;;;;;;4.33;2.33;;;;;16.86;44.98;101670.47;5018925;28;45501;-71
2023/05/30 04:39:10;;;;;;;;;3.67;3.00;;;;;16.88;45.24;101679.53;5020651;28;47181;-72
2023/05/30 04:41:36;;;;;;;;;4.33;3.67;;;;;16.85;45.15;101687.56;5019855;28;45290;-70
2023/05/30 04:44:03;;;;;;;;;5.00;3.33;;;;;16.87;45.24;101696.59;5014427;28;45628;-72
2023/05/30 04:46:29;;;;;;;;;5.00;3.00;;;;;16.86;45.34;101702.84;5011304;28;45476;-72
2023/05/30 04:49:00;;;;;;;;;4.00;3.00;;;;;16.86;45.23;101702.84;4994462;28;45471;-73
2023/05/30 04:51:27;;;;;;;;;6.33;3.00;;;;;16.83;45.96;101708.16;5000268;28;45356;-71
2023/05/30 04:53:53;;;;;;;;;2.67;1.00;;;;;16.86;45.32;101705.56;5019242;28;45446;-70
2023/05/30 04:56:22;;;;;;;;;4.33;3.33;;;;;16.83;45.25;101708.16;5017524;28;45417;-72
2023/05/30 04:58:51;;;;;;;;;4.00;2.00;;;;;16.87;44.96;101718.19;5015385;28;45348;-73
2023/05/30 05:01:18;;;;;;;;;5.33;3.33;;;;;16.85;45.75;101711.84;5013217;28;45447;-71
2023/05/30 05:03:44;;;;;;;;;3.00;3.00;;;;;16.55;45.23;101653.78;4997261;28;45378;-71
2023/05/30 05:06:11;;;;;;;;;1.67;1.67;;;;;16.83;45.54;101703.69;5015651;28;45276;-73
2023/05/30 05:08:37;;;;;;;;;5.33;2.33;;;;;16.69;45.25;101675.56;5012448;28;46387;-76
2023/05/30 05:11:04;;;;;;;;;4.00;2.33;;;;;16.92;45.08;101708.34;5024729;28;45580;-74
2023/05/30 05:13:33;;;;;;;;;4.33;3.00;;;;;16.89;45.53;101698.41;5008159;28;45541;-64
2023/05/30 05:16:00;;;;;;;;;4.33;2.33;;;;;16.88;44.96;101693.91;5026014;28;45698;-62
2023/05/30 05:18:27;;;;;;;;;3.33;1.33;;;;;16.48;44.94;101628.50;5009941;28;45281;-61
2023/05/30 05:20:52;;;;;;;;;4.33;3.33;;;;;16.91;44.83;101699.38;5026412;28;45658;-61
2023/05/30 05:23:18;;;;;;;;;2.00;2.00;;;;;16.97;44.32;101712.03;5022631;28;45283;-60
2023/05/30 05:25:43;;;;;;;;;11.25;9.00;;;;;16.99;44.81;101720.16;5017569;28;45376;-60
2023/05/30 05:28:10;;;;;;;;;6.00;3.00;;;;;16.98;44.79;101719.25;5018942;28;45402;-60
2023/05/30 05:30:35;;;;;;;;;5.00;3.00;;;;;16.99;44.98;101720.16;5017544;28;45414;-61
2023/05/30 05:33:01;;;;;;;;;4.33;4.33;;;;;16.86;44.61;101700.16;5002710;28;46055;-61
2023/05/30 05:35:26;;;;;;;;;4.00;4.00;;;;;16.92;45.15;101719.16;5006908;28;45272;-57
2023/05/30 05:37:51;;;;;;;;;6.25;2.00;;;;;16.91;45.49;101722.72;5018958;28;46426;-57
2023/05/30 05:40:17;;;;;;;;;5.00;5.00;;;;;16.90;44.93;101720.94;5050272;28;47570;-57
2023/05/30 05:42:43;;;;;;;;;4.33;3.00;;;;;16.90;45.19;101723.63;5046149;28;45039;-68
2023/05/30 05:45:09;;;;;;;;;3.00;3.00;;;;;16.92;45.49;101729.94;5051193;28;44968;-58
2023/05/30 05:47:35;;;;;;;;;3.00;2.00;;;;;16.90;44.73;101734.44;5033012;28;45953;-58
2023/05/30 05:50:01;;;;;;;;;2.00;2.00;;;;;16.89;44.74;101728.09;5031157;28;45322;-60
2023/05/30 05:52:29;;;;;;;;;2.00;2.00;;;;;16.87;44.77;101729.88;5022718;28;45613;-56
2023/05/30 05:54:54;;;;;;;;;7.33;5.00;;;;;16.89;44.96;101729.91;5013975;28;45523;-57
2023/05/30 05:57:20;;;;;;;;;4.00;4.00;;;;;16.87;44.82;101720.88;5021094;28;46286;-58
2023/05/30 05:59:46;;;;;;;;;15.50;11.50;;;;;16.90;45.46;101738.03;5014447;28;45228;-58
2023/05/30 06:02:12;;;;;;;;;3.33;3.33;;;;;16.91;45.15;101715.56;5011031;28;45360;-58
2023/05/30 06:04:38;;;;;;;;;5.00;3.67;;;;;16.78;44.59;101705.41;5031517;28;45411;-59
2023/05/30 06:07:04;;;;;;;;;10.75;9.25;;;;;16.78;44.66;101694.63;5025560;28;45673;-59
2023/05/30 06:09:34;;;;;;;;;6.00;4.00;;;;;17.06;44.17;101735.56;5016395;28;45097;-59
2023/05/30 06:12:00;;;;;;;;;10.33;4.33;;;;;17.10;44.22;101742.84;5011737;28;45212;-64
2023/05/30 06:14:26;;;;;;;;;14.00;11.00;;;;;17.06;44.40;101731.09;5014600;28;45244;-58
2023/05/30 06:16:52;;;;;;;;;6.33;3.67;;;;;17.11;44.57;101747.38;5014528;28;45256;-59
2023/05/30 06:19:56;;;;;;;;;;;;;;;;;;;;;
2023/05/30 06:22:22;;;;;;;;;11.33;8.33;;;;;16.83;43.74;101671.31;5006488;28;67667;-68
2023/05/30 06:24:48;;;;;;;;;4.33;3.33;;;;;17.27;44.13;101745.78;5017815;28;45395;-65
2023/05/30 06:27:14;;;;;;;;;4.00;4.00;;;;;17.22;44.08;101737.59;5022558;28;46089;-65
2023/05/30 06:29:41;;;;;;;;;5.33;4.00;;;;;17.31;44.18;101747.66;5003395;28;45433;-64
2023/05/30 06:32:08;;;;;;;;;6.50;3.25;;;;;17.30;43.68;101725.13;5011491;28;45397;-67
2023/05/30 06:34:33;;;;;;;;;4.00;4.00;;;;;17.17;43.67;101703.31;5016454;28;45281;-68
2023/05/30 06:36:58;;;;;;;;;5.00;5.00;;;;;17.33;43.67;101729.66;5017198;28;45525;-65
2023/05/30 06:39:24;;;;;;;;;5.00;4.00;;;;;17.34;43.75;101735.97;4999127;28;45408;-69
2023/05/30 06:41:49;;;;;;;;;6.00;4.33;;;;;17.37;43.39;101734.22;5016915;28;45389;-68
2023/05/30 06:44:15;;;;;;;;;4.00;4.00;;;;;17.42;43.86;101723.47;5017187;28;45541;-66
2023/05/30 06:46:40;;;;;;;;;4.67;2.33;;;;;17.51;43.28;101731.72;5016061;28;46114;-69
2023/05/30 06:49:05;;;;;;;;;4.33;4.33;;;;;17.51;43.70;101734.44;5017057;28;45601;-65
2023/05/30 06:51:31;;;;;;;;;10.50;7.50;;;;;17.62;43.59;101731.84;5004372;28;45352;-69
2023/05/30 06:53:57;;;;;;;;;7.67;1.33;;;;;17.69;43.17;101734.66;5018711;28;45391;-71
2023/05/30 06:56:23;;;;;;;;;6.33;5.00;;;;;17.73;42.84;101734.72;5016706;28;45504;-66
2023/05/30 06:58:48;;;;;;;;;7.67;6.00;;;;;17.79;42.89;101735.69;5014477;28;45388;-67
2023/05/30 07:01:14;;;;;;;;;11.75;9.25;;;;;17.83;42.89;101726.72;5016466;28;45689;-66
2023/05/30 07:03:40;;;;;;;;;8.00;6.00;;;;;17.96;43.03;101729.63;5001527;28;45682;-68
2023/05/30 07:06:06;;;;;;;;;4.67;3.33;;;;;18.05;42.37;101737.84;4997703;28;47274;-69
2023/05/30 07:08:32;;;;;;;;;4.67;4.00;;;;;17.95;41.86;101714.28;5015324;28;45351;-66
2023/05/30 07:10:57;;;;;;;;;5.67;4.00;;;;;18.08;42.06;101736.94;5014208;28;45439;-65
2023/05/30 07:13:23;;;;;;;;;2.00;2.00;;;;;18.13;41.89;101728.03;5002133;28;45242;-65
2023/05/30 07:15:48;;;;;;;;;5.00;2.00;;;;;18.24;41.71;101733.53;5016052;28;45554;-66
2023/05/30 07:18:14;;;;;;;;;3.33;3.33;;;;;18.35;41.55;101737.25;5018092;28;45260;-70
2023/05/30 07:20:46;;;;;;;;;4.33;3.00;;;;;18.42;41.54;101735.50;5000988;28;45339;-66
2023/05/30 07:23:11;;;;;;;;;3.67;3.67;;;;;18.25;41.43;101686.66;5004086;28;45309;-66
2023/05/30 07:25:36;;;;;;;;;16.75;11.75;;;;;18.49;41.50;101723.84;5014940;28;45361;-64
2023/05/30 07:28:02;;;;;;;;;29.75;22.75;;;;;18.63;41.41;101740.22;5014713;28;45460;-65
2023/05/30 07:30:27;;;;;;;;;5.00;3.00;;;;;18.47;40.97;101698.56;5015191;28;45844;-64
2023/05/30 07:32:52;;;;;;;;;4.00;3.33;;;;;18.68;40.74;101729.44;4996775;28;45348;-64
2023/05/30 07:35:18;;;;;;;;;6.67;4.00;;;;;18.76;40.59;101734.03;5015146;28;52614;-65
2023/05/30 07:37:43;;;;;;;;;4.33;4.00;;;;;18.87;40.41;101722.41;5018161;28;45601;-66
2023/05/30 07:40:09;;;;;;;;;5.00;4.00;;;;;18.98;40.55;101727.91;5015197;28;45300;-66
2023/05/30 07:42:36;;;;;;;;;4.33;4.33;;;;;19.20;40.07;101732.56;5016666;28;45582;-64
2023/05/30 07:45:02;;;;;;;;;5.00;3.00;;;;;19.34;39.76;101741.69;5011813;28;47222;-66
2023/05/30 07:47:28;;;;;;;;;4.67;3.00;;;;;19.33;39.72;101720.00;5021607;28;45458;-65
2023/05/30 07:49:53;;;;;;;;;11.25;9.25;;;;;19.46;39.59;101738.16;5015215;28;45443;-65
2023/05/30 07:52:18;;;;;;;;;10.00;8.33;;;;;19.41;39.54;101720.94;4997187;28;45364;-64
2023/05/30 07:54:44;;;;;;;;;14.67;9.33;;;;;19.52;39.73;101734.56;5014802;28;46463;-65
2023/05/30 07:57:12;;;;;;;;;4.67;4.67;;;;;19.57;39.06;101724.66;5014679;28;45483;-65
2023/05/30 07:59:40;;;;;;;;;4.33;4.33;;;;;19.70;39.32;101741.91;5003830;28;45306;-67
2023/05/30 08:02:06;;;;;;;;;3.00;2.00;;;;;19.72;39.24;101729.25;4995663;28;45409;-66
2023/05/30 08:04:31;;;;;;;;;3.00;3.00;;;;;19.82;39.19;101732.94;5016317;28;46289;-65
2023/05/30 08:06:57;;;;;;;;;5.00;3.33;;;;;19.88;39.04;101736.56;4998607;28;45365;-65
2023/05/30 08:09:22;;;;;;;;;5.67;5.67;;;;;19.94;39.00;101745.63;5015177;28;45395;-66
2023/05/30 08:11:48;;;;;;;;;7.33;5.67;;;;;20.02;38.92;101752.00;4997501;28;45471;-66
2023/05/30 08:14:13;;;;;;;;;4.00;4.00;;;;;20.09;38.76;101758.34;4980482;28;47174;-69
2023/05/30 08:16:39;;;;;;;;;8.67;8.00;;;;;20.17;38.60;101754.75;5015443;28;45303;-66
2023/05/30 08:19:04;;;;;;;;;3.33;2.67;;;;;20.24;38.45;101755.66;5015797;28;45379;-65
2023/05/30 08:21:31;;;;;;;;;7.00;7.00;;;;;20.21;38.57;101723.09;5014184;28;44949;-64
2023/05/30 08:23:57;;;;;;;;;2.00;2.00;;;;;20.43;38.15;101749.38;4997011;28;47315;-68
2023/05/30 08:26:24;;;;;;;;;7.00;4.33;;;;;20.49;38.35;101756.63;5017342;28;45403;-67
2023/05/30 08:28:51;;;;;;;;;13.33;6.00;;;;;20.44;38.16;101728.56;5013452;28;45313;-68
2023/05/30 08:31:16;;;;;;;;;3.00;3.00;;;;;20.24;37.62;101668.81;5019629;28;45344;-65
2023/05/30 08:33:41;;;;;;;;;7.33;5.33;;;;;20.56;37.83;101701.44;5018082;28;45989;-66
2023/05/30 08:36:07;;;;;;;;;3.67;3.00;;;;;20.68;37.83;101708.69;5014787;28;45565;-66
2023/05/30 08:38:33;;;;;;;;;2.67;2.00;;;;;20.87;37.77;101755.78;5014266;28;45280;-67
2023/05/30 08:40:59;;;;;;;;;3.00;3.00;;;;;20.89;37.35;101747.66;5014232;28;45466;-66
2023/05/30 08:43:24;;;;;;;;;4.67;4.00;;;;;20.96;37.44;101753.06;5013528;28;46139;-65
2023/05/30 08:45:53;;;;;;;;;7.67;6.33;;;;;20.99;37.31;101744.91;5015239;28;45593;-66
2023/05/30 08:48:20;;;;;;;;;5.00;4.67;;;;;21.02;37.44;101740.38;5019315;28;45394;-65
2023/05/30 08:50:46;;;;;;;;;5.00;3.33;;;;;21.05;37.48;101743.09;5017523;28;45217;-65
2023/05/30 08:53:13;;;;;;;;;5.33;4.67;;;;;21.09;37.03;101736.75;5017854;28;46461;-64
2023/05/30 08:56:11;;;;;;;;;5.00;4.00;;;;;21.03;37.17;101726.78;4999632;28;45495;-66
2023/05/30 08:58:40;;;;;;;;;8.33;7.67;;;;;21.03;37.25;101718.63;5017379;28;45390;-65
2023/05/30 09:01:09;;;;;;;;;6.67;4.67;;;;;21.24;36.88;101738.53;5020493;28;45368;-64
2023/05/30 09:03:37;;;;;;;;;9.67;4.33;;;;;21.22;37.36;101730.38;5024410;28;47410;-67
2023/05/30 09:06:04;;;;;;;;;7.67;5.00;;;;;21.25;37.38;101730.38;5030433;28;45058;-64
2023/05/30 09:08:30;;;;;;;;;6.00;5.00;;;;;21.33;37.03;101741.22;5027394;28;45256;-65
2023/05/30 09:10:57;;;;;;;;;7.00;4.33;;;;;21.33;37.25;101724.91;5029151;28;45439;-65
2023/05/30 09:13:22;;;;;;;;;4.33;4.33;;;;;21.22;37.07;101705.94;5032289;28;45598;-66
2023/05/30 09:15:47;;;;;;;;;6.00;2.67;;;;;21.45;36.89;101732.13;5031543;28;44911;-65
2023/05/30 09:18:13;;;;;;;;;6.00;4.33;;;;;21.40;37.13;101698.59;5022038;28;45399;-66
2023/05/30 09:20:39;;;;;;;;;4.00;4.00;;;;;21.55;36.86;101701.34;5020959;28;45377;-67
2023/05/30 09:23:08;;;;;;;;;5.00;5.00;;;;;21.65;36.75;101715.78;5016618;28;46261;-66
2023/05/30 09:25:44;;;;;;;;;3.33;2.67;;;;;21.65;36.78;101713.06;4999088;28;46184;-66
2023/05/30 09:28:10;;;;;;;;;7.00;6.00;;;;;21.75;36.42;101711.22;5023023;28;45272;-65
2023/05/30 09:30:54;;;;;;;;;6.00;6.00;;;;;21.79;36.39;101719.34;5019045;28;45699;-67
2023/05/30 09:33:20;;;;;;;;;5.00;5.00;;;;;21.71;36.70;101715.75;5017389;28;46174;-65
2023/05/30 09:35:47;;;;;;;;;12.67;7.00;;;;;21.28;36.64;101642.47;5019098;28;45521;-66
2023/05/30 09:38:16;;;;;;;;;6.67;4.33;;;;;21.75;36.92;101716.66;5027720;28;45241;-68
2023/05/30 09:40:41;;;;;;;;;5.00;5.00;;;;;21.53;36.68;101678.66;5025986;28;45299;-67
2023/05/30 09:43:07;;;;;;;;;4.67;4.67;;;;;21.81;36.71;101722.06;5026287;28;45420;-65
2023/05/30 09:45:32;;;;;;;;;4.67;4.67;;;;;21.86;36.64;101707.53;5024151;28;45298;-67
2023/05/30 09:47:58;;;;;;;;;15.67;5.00;;;;;21.98;36.27;101719.28;5018137;28;45635;-66
2023/05/30 09:50:24;;;;;;;;;7.67;6.00;;;;;21.94;36.27;101703.84;5030461;28;45583;-66
2023/05/30 09:52:51;;;;;;;;;14.00;5.33;;;;;21.80;36.15;101663.13;5019212;28;45451;-68
2023/05/30 09:55:19;;;;;;;;;4.33;2.00;;;;;22.06;36.05;101698.38;5018154;28;45515;-68
2023/05/30 09:57:52;;;;;;;;;7.00;4.00;;;;;22.02;36.22;101711.06;5012873;28;45494;-72
2023/05/30 10:00:23;;;;;;;;;4.00;4.00;;;;;22.08;36.46;101712.84;4999353;28;45366;-66
2023/05/30 10:02:55;;;;;;;;;5.33;4.00;;;;;22.02;36.56;101710.16;4996477;28;45490;-66
2023/05/30 10:05:26;;;;;;;;;10.00;8.00;;;;;22.14;36.37;101710.09;4996473;28;45383;-69
2023/05/30 10:07:56;;;;;;;;;5.00;4.00;;;;;22.24;35.97;101711.84;4996615;28;45309;-66
2023/05/30 10:10:22;;;;;;;;;6.33;4.33;;;;;22.29;35.98;101700.97;5019664;28;44880;-65
2023/05/30 10:12:50;;;;;;;;;5.33;4.67;;;;;22.46;35.48;101703.56;5016368;28;46439;-68
2023/05/30 10:15:15;;;;;;;;;4.67;4.33;;;;;22.43;35.49;101690.84;5017125;28;45777;-64
2023/05/30 10:17:53;;;;;;;;;3.67;3.33;;;;;22.51;35.25;101693.53;5016550;28;45441;-69
2023/05/30 10:20:23;;;;;;;;;14.33;12.00;;;;;22.54;35.32;101701.69;4998543;28;45598;-69
2023/05/30 10:22:52;;;;;;;;;5.00;5.00;;;;;22.60;35.40;101707.09;5015086;28;45339;-67
2023/05/30 10:25:18;;;;;;;;;7.33;6.33;;;;;22.44;35.30;101670.88;4997400;28;45285;-66
2023/05/30 10:27:56;;;;;;;;;7.00;4.67;;;;;22.69;35.46;101707.94;4996246;28;45394;-68
2023/05/30 10:30:32;;;;;;;;;5.33;4.33;;;;;22.74;35.14;101703.34;4996240;28;45434;-69
2023/05/30 10:32:57;;;;;;;;;4.33;4.33;;;;;22.78;35.74;101710.53;4996897;28;46002;-68
2023/05/30 10:35:23;;;;;;;;;5.33;3.00;;;;;22.76;35.27;101696.94;5000906;28;46328;-67
2023/05/30 10:37:49;;;;;;;;;4.00;3.00;;;;;22.84;35.26;101709.59;5017849;28;45549;-68
2023/05/30 10:40:36;;;;;;;;;5.00;5.00;;;;;22.82;35.30;101715.06;5016569;28;45450;-68
2023/05/30 10:43:14;;;;;;;;;9.33;8.00;;;;;22.83;35.23;101703.22;5016096;28;46215;-71
2023/05/30 10:45:56;;;;;;;;;5.00;5.00;;;;;22.75;35.27;101708.78;5016087;28;45409;-68
2023/05/30 10:48:27;;;;;;;;;9.00;4.00;;;;;22.71;35.41;101692.47;5017149;28;45606;-70
2023/05/30 10:50:59;;;;;;;;;5.67;4.00;;;;;22.75;35.38;101696.94;4999183;28;45377;-68
2023/05/30 10:53:25;;;;;;;;;25.75;17.50;;;;;22.70;35.27;101686.09;5017415;28;46165;-68
2023/05/30 10:55:51;;;;;;;;;9.00;7.00;;;;;22.74;35.26;101687.00;5024604;28;45375;-70
2023/05/30 10:58:41;;;;;;;;;6.67;6.33;;;;;22.75;35.24;101672.44;5016546;28;45478;-71
2023/05/30 11:01:29;;;;;;;;;7.33;4.33;;;;;22.78;34.99;101688.75;5016488;28;45512;-69
2023/05/30 11:04:04;;;;;;;;;6.00;6.00;;;;;22.80;34.90;101670.56;5016218;28;46722;-66
2023/05/30 11:06:35;;;;;;;;;7.33;7.00;;;;;22.70;35.32;101658.84;5030291;28;45059;-70
2023/05/30 11:09:11;;;;;;;;;10.33;7.67;;;;;22.81;35.09;101669.66;5025767;28;45271;-72
2023/05/30 11:11:41;;;;;;;;;10.67;9.33;;;;;22.81;35.24;101670.53;5016638;28;45460;-69
2023/05/30 11:14:08;;;;;;;;;8.33;6.33;;;;;22.83;34.87;101667.81;4998543;28;45415;-67
2023/05/30 11:16:50;;;;;;;;;7.00;7.00;;;;;22.82;35.10;101664.19;5016138;28;45458;-67
2023/05/30 11:19:16;;;;;;;;;5.00;5.00;;;;;22.84;34.91;101663.28;5023014;28;45376;-69
2023/05/30 11:22:02;;;;;;;;;8.67;7.00;;;;;22.86;34.88;101661.44;4999508;28;45453;-71
2023/05/30 11:24:29;;;;;;;;;5.33;5.33;;;;;22.89;34.58;101653.25;5015754;28;46402;-67
2023/05/30 11:26:59;;;;;;;;;6.33;5.33;;;;;22.92;33.85;101658.66;5013973;28;45594;-66
2023/05/30 11:29:43;;;;;;;;;7.67;5.00;;;;;22.78;34.32;101631.53;5014902;28;45407;-68